Time;durP1;ratioP1;P1;durP2;ratioP2;P2;SDS_P1;SDS_P2;PMS_P1;PMS_P2;Temp;Humidity;BMP_temperature;BMP_pressure;BME280_temperature;BME280_humidity;BME280_pressure;Samples;Min_cycle;Max_cycle;Signal;HPM_P1;HPM_P2
2022/04/30 05:23:21;;;;;;;;;;;;;;;;;;5067984;28;20149;-80
2022/04/30 05:25:48;;;;;;;9.43;4.65;;;;;;;;;;5079203;28;19959;-80
2022/04/30 05:28:16;;;;;;;14.57;5.43;;;;;;;;;;5080177;28;20052;-80
2022/04/30 05:30:44;;;;;;;9.35;5.35;;;;;;;;;;5073736;28;20044;-81
2022/04/30 05:33:12;;;;;;;11.05;5.25;;;;;;;;;;5075297;28;20059;-82
2022/04/30 05:35:40;;;;;;;15.50;5.47;;;;;;;;;;5078007;28;20509;-82
2022/04/30 05:38:08;;;;;;;9.13;5.03;;;;;;;;;;5078161;28;20041;-83
2022/04/30 05:40:36;;;;;;;11.05;5.50;;;;;;;;;;5074095;28;20058;-82
2022/04/30 05:43:05;;;;;;;8.88;4.85;;;;;;;;;;5075834;28;20101;-82
2022/04/30 05:45:32;;;;;;;7.32;4.22;;;;;;;;;;5072727;28;20048;-82
2022/04/30 05:48:01;;;;;;;12.30;4.45;;;;;;;;;;5088876;28;20048;-82
2022/04/30 05:50:31;;;;;;;11.63;4.85;;;;;;;;;;5085196;28;20048;-81
2022/04/30 05:52:58;;;;;;;8.68;4.85;;;;;;;;;;5077306;28;20045;-80
2022/04/30 05:55:26;;;;;;;9.57;4.65;;;;;;;;;;5059971;28;20123;-82
2022/04/30 05:57:55;;;;;;;10.43;4.18;;;;;;;;;;5062032;28;20428;-83
2022/04/30 06:00:27;;;;;;;11.38;3.55;;;;;;;;;;5075726;28;20060;-82
2022/04/30 06:02:56;;;;;;;10.13;4.53;;;;;;;;;;5076904;28;20040;-82
2022/04/30 06:05:24;;;;;;;9.60;4.43;;;;;;;;;;5075332;28;20048;-81
2022/04/30 06:07:53;;;;;;;12.93;3.75;;;;;;;;;;5058574;28;20059;-81
2022/04/30 06:10:20;;;;;;;15.75;4.10;;;;;;;;;;5058373;28;20108;-82
2022/04/30 06:12:49;;;;;;;8.18;3.45;;;;;;;;;;5072847;28;20068;-82
2022/04/30 06:15:16;;;;;;;7.18;3.10;;;;;;;;;;5038077;28;20051;-80
2022/04/30 06:17:44;;;;;;;7.45;3.55;;;;;;;;;;5041126;28;20139;-80
2022/04/30 06:20:12;;;;;;;8.18;3.40;;;;;;;;;;5037156;28;20424;-82
2022/04/30 06:22:42;;;;;;;7.50;4.13;;;;;;;;;;5075392;28;20713;-83
2022/04/30 06:26:09;;;;;;;7.70;3.35;;;;;;;;;;5005267;28;20058;-82
2022/04/30 06:28:50;;;;;;;7.22;3.00;;;;;;;;;;5070799;28;20053;-84
2022/04/30 06:31:18;;;;;;;8.93;3.17;;;;;;;;;;5070511;28;20193;-85
2022/04/30 06:34:03;;;;;;;5.60;3.22;;;;;;;;;;5065784;28;20110;-84
2022/04/30 06:36:44;;;;;;;5.60;3.30;;;;;;;;;;5054454;28;20139;-84
2022/04/30 06:39:14;;;;;;;5.13;3.00;;;;;;;;;;5054738;28;20132;-84
2022/04/30 06:41:56;;;;;;;6.10;2.90;;;;;;;;;;5049371;28;20048;-85
2022/04/30 06:44:39;;;;;;;11.38;3.38;;;;;;;;;;5070624;28;20419;-85
2022/04/30 06:48:02;;;;;;;7.40;3.08;;;;;;;;;;5056548;28;20052;-82
2022/04/30 06:52:31;;;;;;;5.50;2.92;;;;;;;;;;4976657;28;20047;-83
2022/04/30 06:57:14;;;;;;;6.13;2.83;;;;;;;;;;4895931;29;20603;-83
2022/04/30 07:05:26;;;;;;;10.52;2.90;;;;;;;;;;4905279;29;20044;-85
2022/04/30 07:07:54;;;;;;;5.20;2.85;;;;;;;;;;4898635;29;20131;-84
2022/04/30 07:10:36;;;;;;;5.47;2.80;;;;;;;;;;4881220;29;20057;-84
2022/04/30 07:13:04;;;;;;;6.30;2.70;;;;;;;;;;4912060;29;20074;-84
2022/04/30 07:25:59;;;;;;;4.15;2.10;;;;;;;;;;4862572;29;20109;-82
2022/04/30 07:29:03;;;;;;;8.13;2.88;;;;;;;;;;4856983;29;20087;-83
2022/04/30 07:31:32;;;;;;;5.65;2.53;;;;;;;;;;4830908;29;20065;-80
2022/04/30 07:34:00;;;;;;;4.07;2.50;;;;;;;;;;4897830;29;20061;-81
2022/04/30 07:36:28;;;;;;;6.95;2.65;;;;;;;;;;4874118;29;20152;-83
2022/04/30 07:39:37;;;;;;;5.60;2.50;;;;;;;;;;4892280;29;20049;-82
2022/04/30 07:42:41;;;;;;;7.00;2.42;;;;;;;;;;4946016;28;20048;-82
2022/04/30 07:45:32;;;;;;;5.72;2.28;;;;;;;;;;4909847;29;20107;-80
2022/04/30 07:48:01;;;;;;;9.27;2.55;;;;;;;;;;4963545;28;20486;-81
2022/04/30 07:51:58;;;;;;;;;;;;;;;;;;5112500;27;20449;-80
2022/04/30 07:54:27;;;;;;;3.78;1.95;;;;;;;;;;5104829;28;19935;-81
2022/04/30 07:56:59;;;;;;;4.97;2.20;;;;;;;;;;5104124;28;20067;-80
2022/04/30 07:59:31;;;;;;;4.43;2.50;;;;;;;;;;5109235;28;20536;-80
2022/04/30 08:01:58;;;;;;;5.75;2.40;;;;;;;;;;5133503;27;20493;-81
2022/04/30 08:04:27;;;;;;;5.28;2.42;;;;;;;;;;5106543;28;20530;-81
2022/04/30 08:06:57;;;;;;;8.18;2.30;;;;;;;;;;5123624;27;20051;-82
2022/04/30 08:09:25;;;;;;;7.20;2.70;;;;;;;;;;5109366;28;20470;-82
2022/04/30 08:11:56;;;;;;;7.78;2.75;;;;;;;;;;5108716;28;20481;-82
2022/04/30 08:14:25;;;;;;;5.35;2.22;;;;;;;;;;5090648;28;20509;-81
2022/04/30 08:16:55;;;;;;;4.97;2.10;;;;;;;;;;5087010;28;20497;-80
2022/04/30 08:19:23;;;;;;;5.25;2.50;;;;;;;;;;5097472;28;20326;-80
2022/04/30 08:21:50;;;;;;;5.82;2.75;;;;;;;;;;5136430;27;20036;-81
2022/04/30 08:24:39;;;;;;;4.53;2.30;;;;;;;;;;5103036;28;20120;-81
2022/04/30 08:27:46;;;;;;;5.60;2.17;;;;;;;;;;5143922;27;20047;-82
2022/04/30 08:30:29;;;;;;;5.00;2.30;;;;;;;;;;5106403;28;20128;-81
2022/04/30 08:33:10;;;;;;;4.15;2.08;;;;;;;;;;5112325;27;20406;-81
2022/04/30 08:35:53;;;;;;;9.13;2.50;;;;;;;;;;5099005;28;20122;-86
2022/04/30 08:38:35;;;;;;;3.17;2.03;;;;;;;;;;5103309;28;20442;-85
2022/04/30 08:41:40;;;;;;;5.32;2.03;;;;;;;;;;5119686;27;20087;-82
2022/04/30 08:44:43;;;;;;;5.97;1.90;;;;;;;;;;5097360;28;20181;-85
2022/04/30 08:47:29;;;;;;;5.82;2.10;;;;;;;;;;5106790;28;20188;-82
2022/04/30 08:51:11;;;;;;;4.97;1.73;;;;;;;;;;5100384;28;20112;-82
2022/04/30 08:55:16;;;;;;;2.15;1.30;;;;;;;;;;5101662;28;20063;-82
2022/04/30 08:58:56;;;;;;;4.22;1.40;;;;;;;;;;5087966;28;20048;-82
2022/04/30 09:02:11;;;;;;;4.28;1.55;;;;;;;;;;5094602;28;20063;-84
2022/04/30 09:04:54;;;;;;;2.60;1.70;;;;;;;;;;5041523;28;20055;-85
2022/04/30 09:07:37;;;;;;;5.57;1.58;;;;;;;;;;5070475;28;20089;-81
2022/04/30 09:10:35;;;;;;;7.05;2.10;;;;;;;;;;5068465;28;20090;-81
2022/04/30 09:13:17;;;;;;;3.10;1.52;;;;;;;;;;5058101;28;20052;-85
2022/04/30 09:16:38;;;;;;;5.32;1.70;;;;;;;;;;5052855;28;20036;-82
2022/04/30 09:19:59;;;;;;;4.15;1.90;;;;;;;;;;5054543;28;20078;-81
2022/04/30 09:22:52;;;;;;;4.50;1.70;;;;;;;;;;5066390;28;20040;-85
2022/04/30 09:25:44;;;;;;;4.60;1.60;;;;;;;;;;5081895;28;20044;-85
2022/04/30 09:28:41;;;;;;;5.45;1.60;;;;;;;;;;5091973;28;20131;-85
2022/04/30 09:31:27;;;;;;;3.78;1.52;;;;;;;;;;5089765;28;20071;-85
2022/04/30 09:38:56;;;;;;;4.47;1.65;;;;;;;;;;5094979;28;20059;-82
2022/04/30 09:41:44;;;;;;;2.92;1.23;;;;;;;;;;5092335;28;20067;-85
2022/04/30 09:44:29;;;;;;;3.30;1.38;;;;;;;;;;5075814;28;20359;-84
2022/04/30 09:46:57;;;;;;;3.28;1.27;;;;;;;;;;5073925;28;20055;-84
2022/04/30 09:55:13;;;;;;;4.03;1.40;;;;;;;;;;5086514;28;20512;-82
2022/04/30 09:57:45;;;;;;;4.50;1.17;;;;;;;;;;5087874;28;20097;-81
2022/04/30 10:00:15;;;;;;;2.63;1.30;;;;;;;;;;5089520;28;20048;-82
2022/04/30 10:02:53;;;;;;;4.78;1.20;;;;;;;;;;5075764;28;20746;-81
2022/04/30 10:05:32;;;;;;;4.00;1.40;;;;;;;;;;5091272;28;20064;-82
2022/04/30 10:08:03;;;;;;;4.85;1.10;;;;;;;;;;5105006;28;20048;-81
2022/04/30 10:10:51;;;;;;;3.53;1.60;;;;;;;;;;5087088;28;20147;-81
2022/04/30 10:14:05;;;;;;;7.13;1.50;;;;;;;;;;5098214;28;20073;-86
2022/04/30 10:16:34;;;;;;;3.28;1.27;;;;;;;;;;5120187;27;20420;-80
2022/04/30 10:19:11;;;;;;;3.63;1.55;;;;;;;;;;5073605;28;20044;-83
2022/04/30 10:21:39;;;;;;;5.65;1.70;;;;;;;;;;5096214;28;20374;-81
2022/04/30 10:24:50;;;;;;;4.88;2.28;;;;;;;;;;5078389;28;20074;-83
2022/04/30 10:27:53;;;;;;;3.80;1.58;;;;;;;;;;5080177;28;20107;-82
2022/04/30 10:31:04;;;;;;;6.30;2.10;;;;;;;;;;5115821;27;20043;-82
2022/04/30 10:33:48;;;;;;;3.00;1.70;;;;;;;;;;5091342;28;20055;-81
2022/04/30 10:36:21;;;;;;;5.32;1.95;;;;;;;;;;5095562;28;20052;-82
2022/04/30 10:38:59;;;;;;;4.05;1.60;;;;;;;;;;5111216;27;20044;-82
2022/04/30 10:41:31;;;;;;;4.13;1.55;;;;;;;;;;5092120;28;20847;-81
2022/04/30 10:44:04;;;;;;;5.57;1.70;;;;;;;;;;5093667;28;20052;-81
2022/04/30 10:46:42;;;;;;;6.47;1.85;;;;;;;;;;5103940;28;20047;-82
2022/04/30 10:49:11;;;;;;;6.57;2.05;;;;;;;;;;5092441;28;20047;-82
2022/04/30 10:51:53;;;;;;;4.10;1.75;;;;;;;;;;5109319;27;20072;-82
2022/04/30 10:54:27;;;;;;;5.35;2.33;;;;;;;;;;5089652;28;20504;-82
2022/04/30 10:57:04;;;;;;;3.47;1.65;;;;;;;;;;5089724;28;20515;-83
2022/04/30 10:59:34;;;;;;;4.38;1.88;;;;;;;;;;5084105;28;20063;-81
2022/04/30 11:02:05;;;;;;;5.72;1.75;;;;;;;;;;5092009;28;20031;-84
2022/04/30 11:04:52;;;;;;;2.97;1.60;;;;;;;;;;5068777;28;20100;-79
2022/04/30 11:07:21;;;;;;;4.70;1.80;;;;;;;;;;5084154;28;20040;-78
2022/04/30 11:09:48;;;;;;;5.22;1.92;;;;;;;;;;5083465;28;20036;-78
2022/04/30 11:12:19;;;;;;;4.05;1.80;;;;;;;;;;5080131;28;20042;-79
2022/04/30 11:14:49;;;;;;;3.20;1.65;;;;;;;;;;5082721;28;20835;-79
2022/04/30 11:17:17;;;;;;;3.75;1.73;;;;;;;;;;5084372;28;20056;-78
2022/04/30 11:19:45;;;;;;;3.63;1.50;;;;;;;;;;5094357;28;20080;-78
2022/04/30 11:22:20;;;;;;;4.38;1.67;;;;;;;;;;5092009;28;20044;-78
2022/04/30 11:24:47;;;;;;;4.85;1.60;;;;;;;;;;5113082;27;20039;-78
2022/04/30 11:27:16;;;;;;;3.35;1.92;;;;;;;;;;5081640;28;20060;-78
2022/04/30 11:29:52;;;;;;;3.70;1.80;;;;;;;;;;5070487;28;20040;-78
2022/04/30 11:32:22;;;;;;;5.55;1.70;;;;;;;;;;5084247;28;20036;-78
2022/04/30 11:34:53;;;;;;;5.57;1.85;;;;;;;;;;5086604;28;20148;-78
2022/04/30 11:37:21;;;;;;;4.55;2.30;;;;;;;;;;5089525;28;20046;-78
2022/04/30 11:39:49;;;;;;;3.10;1.67;;;;;;;;;;5104551;28;20040;-77
2022/04/30 11:42:17;;;;;;;4.60;2.13;;;;;;;;;;5092818;28;20525;-78
2022/04/30 11:44:45;;;;;;;5.13;1.90;;;;;;;;;;5104906;28;20093;-78
2022/04/30 11:47:13;;;;;;;5.82;2.03;;;;;;;;;;5083991;28;20038;-78
2022/04/30 11:49:41;;;;;;;4.05;2.10;;;;;;;;;;5079432;28;20040;-77
2022/04/30 11:52:09;;;;;;;4.82;1.83;;;;;;;;;;5082172;28;20747;-77
2022/04/30 11:54:39;;;;;;;4.32;2.05;;;;;;;;;;5079496;28;20040;-78
2022/04/30 11:57:08;;;;;;;4.35;1.92;;;;;;;;;;5083001;28;20412;-78
2022/04/30 11:59:40;;;;;;;5.75;2.22;;;;;;;;;;5077240;28;20036;-77
2022/04/30 12:02:10;;;;;;;7.10;2.03;;;;;;;;;;5108622;27;20090;-78
2022/04/30 12:04:43;;;;;;;7.50;2.55;;;;;;;;;;5076064;28;20522;-78
2022/04/30 12:07:12;;;;;;;4.30;2.30;;;;;;;;;;5107719;27;20063;-75
2022/04/30 12:09:50;;;;;;;7.05;3.08;;;;;;;;;;5081804;28;20520;-80
2022/04/30 12:12:23;;;;;;;7.07;3.15;;;;;;;;;;5080735;28;20482;-79
2022/04/30 12:14:53;;;;;;;6.57;2.00;;;;;;;;;;5082636;28;20044;-78
2022/04/30 12:17:32;;;;;;;5.68;2.05;;;;;;;;;;5082831;28;20039;-78
2022/04/30 12:26:04;;;;;;;4.90;2.13;;;;;;;;;;5075886;28;20036;-78
2022/04/30 12:28:50;;;;;;;4.00;1.77;;;;;;;;;;5079987;28;20113;-78
2022/04/30 12:31:18;;;;;;;6.60;2.75;;;;;;;;;;5083907;28;20027;-78
2022/04/30 12:33:50;;;;;;;4.30;2.10;;;;;;;;;;5082675;28;20036;-78
2022/04/30 12:36:18;;;;;;;3.03;1.50;;;;;;;;;;5079199;28;20074;-78
2022/04/30 12:38:55;;;;;;;5.05;2.05;;;;;;;;;;5096773;27;20633;-78
2022/04/30 12:41:23;;;;;;;5.55;1.85;;;;;;;;;;5081588;28;20427;-79
2022/04/30 12:43:54;;;;;;;3.88;2.00;;;;;;;;;;5087654;28;20551;-80
2022/04/30 12:46:24;;;;;;;3.80;1.88;;;;;;;;;;5084340;28;20033;-80
2022/04/30 12:48:53;;;;;;;6.22;2.25;;;;;;;;;;5119035;27;20040;-78
2022/04/30 12:51:21;;;;;;;6.07;1.95;;;;;;;;;;5115207;27;20068;-79
2022/04/30 12:53:49;;;;;;;5.55;2.38;;;;;;;;;;5086536;28;20095;-79
2022/04/30 12:56:17;;;;;;;4.78;1.80;;;;;;;;;;5095633;27;20076;-77
2022/04/30 12:58:45;;;;;;;5.53;2.38;;;;;;;;;;5071295;28;20044;-80
2022/04/30 13:01:15;;;;;;;7.53;2.20;;;;;;;;;;5085493;28;20071;-79
2022/04/30 13:03:42;;;;;;;6.43;2.17;;;;;;;;;;5087092;28;20060;-80
2022/04/30 13:06:13;;;;;;;4.40;1.83;;;;;;;;;;5086245;28;20115;-79
2022/04/30 13:14:15;;;;;;;11.95;2.65;;;;;;;;;;5101446;27;20135;-79
2022/04/30 13:16:45;;;;;;;11.27;2.80;;;;;;;;;;5085973;28;20510;-79
2022/04/30 13:19:15;;;;;;;5.97;2.22;;;;;;;;;;5084669;28;20036;-79
2022/04/30 13:21:49;;;;;;;4.13;2.00;;;;;;;;;;5097505;27;20044;-79
2022/04/30 13:24:18;;;;;;;3.97;2.00;;;;;;;;;;5075266;28;20401;-80
2022/04/30 13:26:47;;;;;;;4.18;2.20;;;;;;;;;;5083607;28;20076;-79
2022/04/30 13:29:17;;;;;;;5.25;2.28;;;;;;;;;;5086968;28;20127;-79
2022/04/30 13:31:45;;;;;;;7.05;2.10;;;;;;;;;;5086139;28;20032;-84
2022/04/30 13:34:27;;;;;;;5.32;2.40;;;;;;;;;;5089593;28;20040;-83
2022/04/30 13:36:58;;;;;;;6.80;3.10;;;;;;;;;;5075598;28;20046;-82
2022/04/30 13:39:25;;;;;;;5.80;2.55;;;;;;;;;;5097462;28;20054;-84
2022/04/30 13:41:53;;;;;;;3.90;1.98;;;;;;;;;;5105762;27;20040;-84
2022/04/30 13:44:20;;;;;;;5.95;2.20;;;;;;;;;;5084947;28;20040;-84
2022/04/30 13:46:49;;;;;;;5.35;2.22;;;;;;;;;;5083524;28;20081;-83
2022/04/30 13:49:23;;;;;;;4.85;1.90;;;;;;;;;;5092440;28;20036;-80
2022/04/30 13:51:56;;;;;;;4.72;1.98;;;;;;;;;;5084253;28;20032;-81
2022/04/30 13:54:28;;;;;;;4.07;2.03;;;;;;;;;;5096756;28;20046;-83
2022/04/30 13:56:54;;;;;;;7.75;2.60;;;;;;;;;;5068829;28;20040;-81
2022/04/30 13:59:33;;;;;;;7.80;2.75;;;;;;;;;;5086629;28;20555;-82
2022/04/30 14:02:03;;;;;;;4.85;2.33;;;;;;;;;;5100970;27;20050;-81
2022/04/30 14:05:22;;;;;;;10.43;2.20;;;;;;;;;;5046881;28;20159;-80
2022/04/30 14:07:50;;;;;;;3.30;1.83;;;;;;;;;;5044716;28;20052;-80
2022/04/30 14:10:21;;;;;;;5.13;2.30;;;;;;;;;;5067066;28;20079;-81
2022/04/30 14:14:55;;;;;;;4.55;2.10;;;;;;;;;;5067961;28;20127;-80
2022/04/30 14:15:46;;;;;;;5.80;2.00;;;;;;;;;;5088737;28;20107;-80
2022/04/30 14:18:19;;;;;;;4.72;1.98;;;;;;;;;;5064358;28;20049;-81
2022/04/30 14:20:47;;;;;;;3.53;1.98;;;;;;;;;;5048439;28;20103;-81
2022/04/30 14:23:23;;;;;;;4.25;1.85;;;;;;;;;;5082178;28;20055;-81
2022/04/30 14:26:05;;;;;;;3.40;2.10;;;;;;;;;;5084344;28;20094;-81
2022/04/30 14:28:36;;;;;;;4.00;2.10;;;;;;;;;;5069068;28;20067;-81
2022/04/30 14:31:08;;;;;;;4.93;2.03;;;;;;;;;;5066312;28;20070;-80
2022/04/30 14:33:37;;;;;;;4.95;2.22;;;;;;;;;;5068545;28;20071;-82
2022/04/30 14:36:09;;;;;;;5.05;2.60;;;;;;;;;;5102883;27;20052;-81
2022/04/30 14:38:40;;;;;;;4.65;1.77;;;;;;;;;;5099419;28;20048;-81
2022/04/30 14:41:10;;;;;;;5.38;2.35;;;;;;;;;;5081486;28;20396;-81
2022/04/30 14:43:47;;;;;;;4.15;1.88;;;;;;;;;;5120619;27;20045;-80
2022/04/30 14:46:17;;;;;;;3.95;2.00;;;;;;;;;;5090237;28;20127;-80
2022/04/30 14:48:45;;;;;;;3.25;1.75;;;;;;;;;;5086562;28;20038;-80
2022/04/30 14:51:13;;;;;;;4.28;1.92;;;;;;;;;;5080862;28;20036;-80
2022/04/30 14:53:41;;;;;;;4.85;1.55;;;;;;;;;;5085934;28;20044;-80
2022/04/30 14:56:12;;;;;;;10.18;2.35;;;;;;;;;;5111169;27;20032;-81
2022/04/30 14:58:40;;;;;;;3.75;2.05;;;;;;;;;;5081556;28;20090;-80
2022/04/30 15:01:23;;;;;;;3.55;2.08;;;;;;;;;;5076859;28;20033;-80
2022/04/30 15:03:50;;;;;;;3.88;2.15;;;;;;;;;;5098448;27;20072;-78
2022/04/30 15:06:21;;;;;;;4.38;2.15;;;;;;;;;;5070744;28;20058;-79
2022/04/30 15:08:51;;;;;;;5.22;2.40;;;;;;;;;;5083296;28;20036;-79
2022/04/30 15:11:18;;;;;;;5.35;2.33;;;;;;;;;;5076189;28;20119;-78
2022/04/30 15:13:50;;;;;;;6.07;2.45;;;;;;;;;;5079110;28;20375;-80
2022/04/30 15:16:19;;;;;;;3.88;2.15;;;;;;;;;;5075952;28;20085;-79
2022/04/30 15:18:46;;;;;;;4.32;2.25;;;;;;;;;;5079875;28;20142;-79
2022/04/30 15:21:15;;;;;;;6.53;1.80;;;;;;;;;;5069406;28;20036;-78
2022/04/30 15:23:42;;;;;;;4.53;2.20;;;;;;;;;;5076514;28;20040;-79
2022/04/30 15:26:11;;;;;;;4.63;1.90;;;;;;;;;;5115073;27;20040;-82
2022/04/30 15:28:38;;;;;;;5.55;2.20;;;;;;;;;;5080148;28;20378;-80
2022/04/30 15:31:26;;;;;;;3.28;1.90;;;;;;;;;;5083621;28;20043;-82
2022/04/30 15:33:55;;;;;;;4.43;2.10;;;;;;;;;;5095260;28;20481;-82
2022/04/30 15:36:25;;;;;;;3.92;2.10;;;;;;;;;;5095997;28;20040;-83
2022/04/30 15:38:53;;;;;;;4.00;1.95;;;;;;;;;;5084240;28;20406;-84
2022/04/30 15:41:21;;;;;;;4.93;2.20;;;;;;;;;;5104473;27;20045;-83
2022/04/30 15:43:48;;;;;;;5.00;2.00;;;;;;;;;;5088960;28;20040;-83
2022/04/30 15:46:17;;;;;;;3.53;2.10;;;;;;;;;;5089274;28;20382;-84
2022/04/30 15:51:34;;;;;;;4.60;1.92;;;;;;;;;;5085198;28;20053;-83
2022/04/30 15:54:00;;;;;;;4.97;2.20;;;;;;;;;;5083252;28;20063;-84
2022/04/30 15:56:29;;;;;;;5.78;2.15;;;;;;;;;;5088003;28;20112;-83
2022/04/30 15:58:59;;;;;;;7.70;2.10;;;;;;;;;;5107064;28;20090;-84
2022/04/30 16:01:28;;;;;;;5.00;2.17;;;;;;;;;;5085116;28;20047;-82
2022/04/30 16:04:11;;;;;;;4.85;2.28;;;;;;;;;;5074303;28;20051;-80
2022/04/30 16:06:41;;;;;;;4.50;2.28;;;;;;;;;;5083148;28;20047;-84
2022/04/30 16:09:09;;;;;;;5.20;2.30;;;;;;;;;;5053288;28;20051;-83
2022/04/30 16:11:38;;;;;;;3.70;2.08;;;;;;;;;;5097591;28;20045;-82
2022/04/30 16:14:06;;;;;;;3.92;1.90;;;;;;;;;;5090175;28;20040;-83
2022/04/30 16:16:36;;;;;;;5.43;2.60;;;;;;;;;;5089366;28;20037;-80
2022/04/30 16:19:06;;;;;;;4.18;2.42;;;;;;;;;;5104111;27;20040;-80
2022/04/30 16:21:33;;;;;;;9.80;2.80;;;;;;;;;;5083494;28;20436;-80
2022/04/30 16:24:03;;;;;;;5.28;2.83;;;;;;;;;;5072594;28;20068;-81
2022/04/30 16:26:31;;;;;;;9.13;3.80;;;;;;;;;;5085019;28;20550;-81
2022/04/30 16:28:59;;;;;;;6.13;3.78;;;;;;;;;;5103534;27;20033;-80
2022/04/30 16:31:26;;;;;;;5.13;2.42;;;;;;;;;;5089717;28;20097;-81
2022/04/30 16:33:54;;;;;;;4.55;2.70;;;;;;;;;;5083659;28;20046;-81
2022/04/30 16:36:24;;;;;;;5.15;2.20;;;;;;;;;;5093803;28;20041;-80
2022/04/30 16:38:55;;;;;;;5.15;2.22;;;;;;;;;;5081685;28;20374;-78
2022/04/30 16:41:26;;;;;;;4.00;2.30;;;;;;;;;;5101935;27;20037;-79
2022/04/30 16:43:55;;;;;;;5.63;2.33;;;;;;;;;;5090074;28;20032;-80
2022/04/30 16:46:22;;;;;;;6.32;2.85;;;;;;;;;;5091530;28;20122;-80
2022/04/30 16:48:52;;;;;;;4.55;2.67;;;;;;;;;;5072542;28;20093;-80
2022/04/30 16:54:06;;;;;;;6.32;2.60;;;;;;;;;;5092153;28;20048;-79
2022/04/30 16:57:06;;;;;;;4.50;2.40;;;;;;;;;;5081060;28;20029;-82
2022/04/30 17:00:52;;;;;;;6.15;2.42;;;;;;;;;;5082982;28;20064;-83
2022/04/30 17:04:55;;;;;;;7.68;2.70;;;;;;;;;;5088805;28;20064;-82
2022/04/30 17:07:50;;;;;;;6.43;2.10;;;;;;;;;;5074916;28;20051;-84
2022/04/30 17:10:19;;;;;;;4.45;2.45;;;;;;;;;;5069411;28;20052;-85
2022/04/30 17:12:57;;;;;;;3.35;1.85;;;;;;;;;;5071083;28;20043;-84
2022/04/30 17:15:25;;;;;;;6.38;2.28;;;;;;;;;;5083898;28;20520;-82
2022/04/30 17:18:00;;;;;;;6.13;2.20;;;;;;;;;;5086546;28;20536;-82
2022/04/30 17:20:28;;;;;;;4.22;1.92;;;;;;;;;;5086433;28;20251;-83
2022/04/30 17:22:57;;;;;;;5.38;2.25;;;;;;;;;;5078746;28;20084;-83
2022/04/30 17:25:31;;;;;;;5.18;2.25;;;;;;;;;;5057552;28;20044;-83
2022/04/30 17:27:58;;;;;;;4.80;2.42;;;;;;;;;;5053111;28;20138;-83
2022/04/30 17:30:29;;;;;;;6.65;1.77;;;;;;;;;;5082643;28;20048;-83
2022/04/30 17:38:28;;;;;;;2.80;1.70;;;;;;;;;;5083434;28;20032;-80
2022/04/30 17:41:01;;;;;;;4.38;2.47;;;;;;;;;;5084054;28;20041;-80
2022/04/30 17:43:28;;;;;;;5.50;2.70;;;;;;;;;;5100773;27;20154;-80
2022/04/30 17:45:57;;;;;;;4.85;2.33;;;;;;;;;;5086194;28;20386;-80
2022/04/30 17:48:25;;;;;;;3.47;1.88;;;;;;;;;;5097727;28;20044;-80
2022/04/30 17:50:53;;;;;;;3.92;1.70;;;;;;;;;;5072778;28;20074;-80
2022/04/30 17:53:21;;;;;;;2.20;1.27;;;;;;;;;;5054164;28;20052;-79
2022/04/30 17:55:49;;;;;;;3.30;1.40;;;;;;;;;;5081086;28;20035;-80
2022/04/30 17:58:16;;;;;;;2.55;1.05;;;;;;;;;;5086732;28;20036;-80
2022/04/30 18:00:45;;;;;;;2.70;1.38;;;;;;;;;;5072369;28;20048;-80
2022/04/30 18:03:15;;;;;;;3.30;1.27;;;;;;;;;;5086520;28;20105;-81
2022/04/30 18:05:43;;;;;;;3.50;1.38;;;;;;;;;;5084748;28;20139;-82
2022/04/30 18:08:12;;;;;;;2.10;1.20;;;;;;;;;;5095307;28;20074;-80
2022/04/30 18:10:41;;;;;;;2.20;1.30;;;;;;;;;;5092119;28;20055;-80
2022/04/30 18:13:09;;;;;;;5.43;1.52;;;;;;;;;;5108588;27;20817;-81
2022/04/30 18:15:37;;;;;;;4.03;2.33;;;;;;;;;;5091908;28;20040;-82
2022/04/30 18:18:07;;;;;;;3.28;1.50;;;;;;;;;;5119487;27;20050;-81
2022/04/30 18:20:38;;;;;;;4.25;1.73;;;;;;;;;;5083232;28;20044;-81
2022/04/30 18:23:07;;;;;;;4.38;1.63;;;;;;;;;;5089672;28;20032;-80
2022/04/30 18:25:39;;;;;;;3.72;1.40;;;;;;;;;;5098656;27;20039;-80
2022/04/30 18:28:07;;;;;;;3.75;1.60;;;;;;;;;;5089836;28;20038;-79
2022/04/30 18:30:35;;;;;;;3.50;1.70;;;;;;;;;;5086521;28;20040;-80
2022/04/30 18:33:07;;;;;;;4.50;2.13;;;;;;;;;;5082492;28;20024;-79
2022/04/30 18:35:35;;;;;;;3.47;1.95;;;;;;;;;;5090419;28;20097;-79
2022/04/30 18:38:09;;;;;;;3.45;1.80;;;;;;;;;;5084004;28;20135;-79
2022/04/30 18:40:36;;;;;;;3.78;1.92;;;;;;;;;;5096084;27;20119;-79
2022/04/30 18:43:09;;;;;;;5.55;2.05;;;;;;;;;;5072775;28;20493;-80
2022/04/30 18:45:37;;;;;;;10.23;2.60;;;;;;;;;;5085680;28;20071;-80
2022/04/30 18:48:05;;;;;;;5.28;2.25;;;;;;;;;;5089482;28;20048;-80
2022/04/30 18:50:33;;;;;;;4.75;3.00;;;;;;;;;;5089700;28;20457;-80
2022/04/30 18:53:01;;;;;;;6.78;3.50;;;;;;;;;;5095656;27;20063;-80
2022/04/30 19:01:01;;;;;;;7.78;3.30;;;;;;;;;;5090459;27;20194;-79
2022/04/30 19:03:30;;;;;;;7.95;3.45;;;;;;;;;;5100805;27;20755;-79
2022/04/30 19:06:03;;;;;;;7.32;3.50;;;;;;;;;;5087135;28;20040;-80
2022/04/30 19:08:32;;;;;;;7.70;3.60;;;;;;;;;;5088569;28;20040;-80
2022/04/30 19:11:01;;;;;;;9.60;3.60;;;;;;;;;;5085880;28;20044;-80
2022/04/30 19:13:29;;;;;;;6.72;3.08;;;;;;;;;;5102107;27;20043;-80
2022/04/30 19:15:56;;;;;;;9.55;3.47;;;;;;;;;;5118088;27;20144;-78
2022/04/30 19:18:25;;;;;;;6.63;3.40;;;;;;;;;;5080481;28;20044;-78
2022/04/30 19:20:52;;;;;;;5.80;3.20;;;;;;;;;;5079043;28;20456;-78
2022/04/30 19:23:22;;;;;;;8.00;3.00;;;;;;;;;;5080711;28;20119;-78
2022/04/30 19:25:51;;;;;;;6.97;3.28;;;;;;;;;;5076059;28;20036;-77
2022/04/30 19:28:19;;;;;;;6.80;3.50;;;;;;;;;;5079126;28;20037;-78
2022/04/30 19:30:48;;;;;;;7.25;3.47;;;;;;;;;;5079005;28;20051;-79
2022/04/30 19:33:16;;;;;;;6.45;3.42;;;;;;;;;;5108591;27;20047;-78
2022/04/30 19:35:45;;;;;;;7.60;3.40;;;;;;;;;;5093616;27;20048;-77
2022/04/30 19:38:12;;;;;;;6.07;3.45;;;;;;;;;;5081045;28;20428;-78
2022/04/30 19:40:40;;;;;;;7.38;3.47;;;;;;;;;;5079130;28;20086;-78
2022/04/30 19:43:08;;;;;;;6.63;3.30;;;;;;;;;;5082660;28;20037;-78
2022/04/30 19:45:36;;;;;;;8.90;3.65;;;;;;;;;;5079641;28;20532;-78
2022/04/30 19:48:05;;;;;;;10.68;3.60;;;;;;;;;;5078606;28;20063;-78
2022/04/30 19:50:33;;;;;;;10.93;5.15;;;;;;;;;;5079977;28;20036;-78
2022/04/30 19:53:01;;;;;;;9.52;4.70;;;;;;;;;;5078767;28;20374;-79
2022/04/30 19:55:29;;;;;;;9.40;4.43;;;;;;;;;;5057170;28;20764;-79
2022/04/30 19:57:57;;;;;;;7.20;4.15;;;;;;;;;;5081787;28;20110;-79
2022/04/30 20:00:24;;;;;;;8.50;3.50;;;;;;;;;;5084484;28;20068;-80
2022/04/30 20:02:56;;;;;;;7.78;3.75;;;;;;;;;;5081504;28;20497;-80
2022/04/30 20:05:25;;;;;;;8.07;3.97;;;;;;;;;;5116643;27;20074;-80
2022/04/30 20:07:52;;;;;;;10.32;3.95;;;;;;;;;;5100132;28;20017;-80
2022/04/30 20:18:38;;;;;;;8.82;4.57;;;;;;;;;;5086171;28;20417;-80
2022/04/30 20:21:07;;;;;;;9.80;4.38;;;;;;;;;;5114053;27;20047;-80
2022/04/30 20:23:35;;;;;;;9.45;4.55;;;;;;;;;;5086119;28;20170;-80
2022/04/30 20:26:07;;;;;;;15.52;7.25;;;;;;;;;;5100993;28;20556;-80
2022/04/30 20:28:35;;;;;;;9.88;6.18;;;;;;;;;;5084864;28;20048;-79
2022/04/30 20:36:40;;;;;;;8.73;4.90;;;;;;;;;;5085380;28;20056;-79
2022/04/30 20:39:10;;;;;;;9.25;5.13;;;;;;;;;;5101721;28;20135;-78
2022/04/30 20:41:38;;;;;;;8.05;4.70;;;;;;;;;;5098009;28;20059;-79
2022/04/30 20:44:13;;;;;;;10.00;5.45;;;;;;;;;;5104833;28;20036;-79
2022/04/30 20:46:41;;;;;;;8.18;4.80;;;;;;;;;;5070326;28;20173;-79
2022/04/30 20:49:08;;;;;;;8.73;5.30;;;;;;;;;;5098511;28;20040;-79
2022/04/30 20:51:37;;;;;;;9.05;5.07;;;;;;;;;;5088576;28;20136;-80
2022/04/30 20:54:09;;;;;;;13.13;5.70;;;;;;;;;;5050733;28;20173;-79
2022/04/30 20:56:38;;;;;;;13.52;5.70;;;;;;;;;;5087825;28;20054;-79
2022/04/30 20:59:09;;;;;;;10.15;5.55;;;;;;;;;;5104487;27;20036;-79
2022/04/30 21:01:37;;;;;;;9.90;5.85;;;;;;;;;;5105340;27;20123;-80
2022/04/30 21:04:05;;;;;;;11.85;6.13;;;;;;;;;;5108780;27;20047;-82
2022/04/30 21:06:34;;;;;;;11.48;6.40;;;;;;;;;;5109045;27;20071;-82
2022/04/30 21:09:02;;;;;;;11.27;6.82;;;;;;;;;;5102660;27;20493;-81
2022/04/30 21:11:31;;;;;;;12.50;6.15;;;;;;;;;;5103661;27;20031;-80
2022/04/30 21:13:59;;;;;;;9.52;5.93;;;;;;;;;;5110280;27;20131;-82
2022/04/30 21:16:27;;;;;;;10.63;6.25;;;;;;;;;;5110692;27;20782;-81
2022/04/30 21:18:56;;;;;;;13.95;6.15;;;;;;;;;;5106518;27;20044;-81
2022/04/30 21:21:23;;;;;;;13.35;6.78;;;;;;;;;;5086964;28;20094;-81
2022/04/30 21:23:51;;;;;;;13.43;7.13;;;;;;;;;;5109698;27;20038;-81
2022/04/30 21:26:19;;;;;;;12.73;7.05;;;;;;;;;;5110103;27;20036;-82
2022/04/30 21:28:47;;;;;;;16.45;7.47;;;;;;;;;;5107251;27;20035;-81
2022/04/30 21:31:17;;;;;;;17.95;8.15;;;;;;;;;;5074500;27;20093;-83
2022/04/30 21:33:44;;;;;;;16.85;8.15;;;;;;;;;;5114674;27;20031;-81
2022/04/30 21:36:13;;;;;;;14.90;8.20;;;;;;;;;;5089936;27;20516;-82
2022/04/30 21:38:45;;;;;;;18.25;9.15;;;;;;;;;;5096191;27;20046;-80
2022/04/30 21:43:58;;;;;;;14.25;7.82;;;;;;;;;;5094252;27;20032;-82
2022/04/30 21:46:26;;;;;;;19.15;8.18;;;;;;;;;;5119186;27;21017;-82
2022/04/30 21:48:55;;;;;;;13.00;8.38;;;;;;;;;;5109913;27;20043;-81
2022/04/30 21:51:22;;;;;;;20.70;7.55;;;;;;;;;;5090971;28;20067;-82
2022/04/30 21:53:51;;;;;;;18.52;8.30;;;;;;;;;;5109913;27;20496;-79
2022/04/30 22:02:05;;;;;;;18.05;8.35;;;;;;;;;;5094166;28;20039;-82
2022/04/30 22:04:33;;;;;;;16.50;7.85;;;;;;;;;;5112921;27;20063;-80
2022/04/30 22:07:01;;;;;;;13.23;7.38;;;;;;;;;;5107828;27;20047;-82